Terminal Aerodrome Forecast
Issued by NWS

Home | Current Version | Previous Version | Text Only | Print | Product List | Glossary On
Versions: 1 2 3 4 5 6 7 8 9 10 11 12
926
FTPA31 PHFO 202328
TAFHJR
TAF
PHJR 202328Z 2100/2124 08009G17KT P6SM FEW050
     FM210500 07004KT P6SM FEW050
     FM211900 07009G15KT P6SM FEW025 SCT050=

USA.gov is the U.S. government's official web portal to all federal, state and local government web resources and services.